Time;durP1;ratioP1;P1;durP2;ratioP2;P2;SDS_P1;SDS_P2;PMS_P1;PMS_P2;Temp;Humidity;BMP_temperature;BMP_pressure;BME280_temperature;BME280_humidity;BME280_pressure;Samples;Min_cycle;Max_cycle;Signal;HPM_P1;HPM_P2
2021/11/24 00:00:10;;;;;;;39.92;20.08;;;;;;;3.11;70.83;102187.45;1800540;77;25707;-62
2021/11/24 00:02:39;;;;;;;39.95;21.02;;;;;;;3.13;70.45;102192.73;1829756;77;25702;-64
2021/11/24 00:05:09;;;;;;;34.63;18.90;;;;;;;3.10;70.01;102191.50;1835720;77;26531;-63
2021/11/24 00:07:38;;;;;;;30.40;18.00;;;;;;;3.04;70.08;102205.88;1815843;77;25884;-63
2021/11/24 00:10:13;;;;;;;33.85;18.17;;;;;;;3.02;70.04;102205.05;1820848;78;27880;-65
2021/11/24 00:12:43;;;;;;;35.73;20.10;;;;;;;3.00;70.08;102201.59;1786615;78;26549;-62
2021/11/24 00:15:11;;;;;;;37.05;20.15;;;;;;;3.03;70.39;102203.28;1810041;78;25743;-64
2021/11/24 00:17:39;;;;;;;35.25;20.00;;;;;;;3.03;70.34;102206.79;1822539;78;25810;-64
2021/11/24 00:20:08;;;;;;;38.95;18.95;;;;;;;3.03;70.61;102202.80;1778985;78;25965;-64
2021/11/24 00:22:35;;;;;;;35.90;18.70;;;;;;;3.03;70.45;102208.12;1814849;77;28068;-64
2021/11/24 00:25:05;;;;;;;34.90;17.30;;;;;;;3.01;70.41;102212.61;1812031;78;25581;-64
2021/11/24 00:27:32;;;;;;;34.80;19.62;;;;;;;3.05;70.77;102214.73;1807297;78;25766;-63
2021/11/24 00:29:59;;;;;;;35.35;17.73;;;;;;;3.07;70.67;102224.39;1823110;78;26518;-64
2021/11/24 00:32:26;;;;;;;31.17;17.37;;;;;;;3.16;70.56;102227.66;1817318;78;25967;-64
2021/11/24 00:34:53;;;;;;;31.82;17.15;;;;;;;3.15;70.41;102228.58;1801199;78;27938;-64
2021/11/24 00:37:20;;;;;;;31.20;16.87;;;;;;;3.16;70.45;102237.81;1804877;78;25755;-64
2021/11/24 00:39:47;;;;;;;34.85;16.87;;;;;;;3.15;70.41;102237.88;1809198;76;26417;-64
2021/11/24 00:42:15;;;;;;;34.80;17.73;;;;;;;3.13;70.47;102236.61;1801375;78;26555;-64
2021/11/24 00:44:42;;;;;;;30.70;15.58;;;;;;;3.11;70.31;102231.33;1826142;78;25569;-64
2021/11/24 00:47:09;;;;;;;33.10;17.52;;;;;;;3.09;70.30;102232.30;1803737;78;27792;-62
2021/11/24 00:49:39;;;;;;;29.15;17.50;;;;;;;3.06;70.41;102238.60;1826316;78;25691;-64
2021/11/24 00:52:08;;;;;;;34.85;17.23;;;;;;;3.02;70.44;102241.41;1831428;77;25792;-62
2021/11/24 00:54:35;;;;;;;32.28;16.62;;;;;;;2.99;70.47;102234.41;1817614;78;25746;-62
2021/11/24 00:57:04;;;;;;;29.95;18.35;;;;;;;2.99;70.71;102229.09;1823094;78;25755;-63
2021/11/24 00:59:31;;;;;;;30.95;16.73;;;;;;;3.00;70.60;102232.61;1824856;78;27408;-62
2021/11/24 01:01:58;;;;;;;31.15;16.52;;;;;;;2.99;70.53;102231.76;1783749;78;25831;-62
2021/11/24 01:04:25;;;;;;;28.45;15.93;;;;;;;3.03;70.49;102232.52;1807051;78;25783;-62
2021/11/24 01:06:52;;;;;;;34.23;16.15;;;;;;;3.02;70.47;102234.29;1809750;78;26468;-63
2021/11/24 01:09:19;;;;;;;32.90;16.65;;;;;;;3.03;70.41;102231.19;1809010;78;25756;-62
2021/11/24 01:11:46;;;;;;;34.53;16.35;;;;;;;3.06;70.50;102229.30;1809656;78;28221;-62
2021/11/24 01:14:13;;;;;;;26.52;15.75;;;;;;;3.12;70.65;102232.22;1813721;78;25769;-62
2021/11/24 01:16:40;;;;;;;27.60;15.95;;;;;;;3.16;70.65;102235.63;1823065;78;25721;-62
2021/11/24 01:19:07;;;;;;;28.62;15.78;;;;;;;3.20;70.77;102231.94;1832873;78;25768;-62
2021/11/24 01:21:34;;;;;;;33.45;16.45;;;;;;;3.25;70.85;102225.54;1810888;78;25623;-62
2021/11/24 01:24:00;;;;;;;28.65;15.68;;;;;;;3.32;70.92;102230.19;1819004;78;27527;-63
2021/11/24 01:26:27;;;;;;;26.45;15.83;;;;;;;3.33;70.70;102226.61;1817148;78;27205;-62
2021/11/24 01:28:55;;;;;;;33.18;14.98;;;;;;;3.38;70.73;102232.63;1809902;78;25662;-63
2021/11/24 01:31:22;;;;;;;26.68;14.70;;;;;;;3.43;70.77;102221.83;1820940;77;25792;-63
2021/11/24 01:33:49;;;;;;;26.97;13.35;;;;;;;3.44;70.56;102227.56;1810107;78;25707;-63
2021/11/24 01:36:16;;;;;;;27.80;15.43;;;;;;;3.45;70.47;102235.95;1814058;77;27481;-63
2021/11/24 01:38:43;;;;;;;28.42;15.45;;;;;;;3.48;70.30;102232.31;1828492;77;26106;-63
2021/11/24 01:41:10;;;;;;;23.83;14.83;;;;;;;3.48;70.43;102237.19;1832963;78;25697;-63
2021/11/24 01:43:37;;;;;;;30.02;14.38;;;;;;;3.48;70.38;102230.53;1836983;76;26499;-63
2021/11/24 01:46:04;;;;;;;27.07;15.90;;;;;;;3.54;70.49;102234.30;1814468;78;25808;-63
2021/11/24 01:48:31;;;;;;;28.42;15.40;;;;;;;3.59;70.55;102224.34;1836245;78;27456;-63
2021/11/24 01:50:58;;;;;;;24.50;15.15;;;;;;;3.62;70.26;102225.16;1836831;78;25768;-62
2021/11/24 01:53:28;;;;;;;31.93;14.35;;;;;;;3.60;69.89;102226.08;1835143;78;25602;-63
2021/11/24 01:55:58;;;;;;;28.27;14.65;;;;;;;3.58;69.67;102225.73;1837304;78;26413;-63
2021/11/24 01:58:26;;;;;;;27.48;14.63;;;;;;;3.57;69.66;102222.22;1816646;78;25694;-62
2021/11/24 02:00:54;;;;;;;29.50;14.45;;;;;;;3.56;69.70;102226.25;1815231;77;27507;-63
2021/11/24 02:03:20;;;;;;;21.40;12.43;;;;;;;3.54;69.52;102223.66;1821019;78;25778;-63
2021/11/24 02:05:48;;;;;;;23.18;13.38;;;;;;;3.50;69.60;102219.34;1809517;79;25809;-63
2021/11/24 02:08:14;;;;;;;24.63;14.33;;;;;;;3.49;69.71;102221.63;1806834;78;25777;-63
2021/11/24 02:10:41;;;;;;;23.52;14.55;;;;;;;3.47;69.81;102228.80;1801121;78;25683;-63
2021/11/24 02:13:08;;;;;;;25.70;13.22;;;;;;;3.46;69.91;102227.05;1803099;78;28286;-63
2021/11/24 02:15:35;;;;;;;19.98;12.15;;;;;;;3.41;69.84;102231.20;1801040;78;25782;-63
2021/11/24 02:18:05;;;;;;;19.95;10.88;;;;;;;3.38;69.62;102235.29;1800938;78;25791;-63
2021/11/24 02:20:41;;;;;;;19.40;11.10;;;;;;;3.33;69.38;102231.05;1801216;79;25735;-63
2021/11/24 02:23:10;;;;;;;19.87;11.80;;;;;;;3.32;69.44;102237.31;1802254;78;25854;-62
2021/11/24 02:25:40;;;;;;;21.70;11.63;;;;;;;3.26;69.53;102239.72;1819600;78;27431;-63
2021/11/24 02:28:07;;;;;;;19.45;11.68;;;;;;;3.25;69.58;102239.31;1803636;78;25954;-63
2021/11/24 02:30:35;;;;;;;19.75;12.13;;;;;;;3.26;69.65;102238.39;1801347;79;25781;-63
2021/11/24 02:33:03;;;;;;;25.02;12.45;;;;;;;3.28;69.65;102241.84;1813775;78;25782;-63
2021/11/24 02:35:30;;;;;;;22.48;12.95;;;;;;;3.27;69.78;102243.65;1831519;78;25834;-63
2021/11/24 02:37:58;;;;;;;28.38;13.58;;;;;;;3.30;69.89;102245.33;1830794;78;27484;-63
2021/11/24 02:40:33;;;;;;;26.73;13.85;;;;;;;3.37;69.99;102252.17;1812479;78;25643;-63
2021/11/24 02:43:02;;;;;;;23.20;13.60;;;;;;;3.41;70.00;102245.83;1802320;78;25719;-63
2021/11/24 02:45:30;;;;;;;22.48;13.80;;;;;;;3.45;69.83;102248.78;1817611;78;26691;-63
2021/11/24 02:47:57;;;;;;;22.52;12.50;;;;;;;3.49;69.73;102250.02;1831241;78;25742;-63
2021/11/24 02:50:23;;;;;;;23.80;12.20;;;;;;;3.57;70.06;102256.81;1831281;78;27825;-63
2021/11/24 02:52:51;;;;;;;21.85;11.50;;;;;;;3.69;70.26;102255.95;1830947;78;25850;-63
2021/11/24 02:55:19;;;;;;;27.93;12.65;;;;;;;3.76;69.82;102257.02;1807816;78;25795;-63
2021/11/24 02:57:49;;;;;;;25.85;11.48;;;;;;;3.76;69.23;102262.34;1808928;78;25742;-63
2021/11/24 03:00:29;;;;;;;18.67;10.40;;;;;;;3.71;68.66;102258.10;1828902;76;25791;-63
2021/11/24 03:02:56;;;;;;;24.25;11.00;;;;;;;3.66;68.79;102256.94;1824880;78;28179;-63
2021/11/24 03:05:26;;;;;;;16.62;9.88;;;;;;;3.69;68.90;102256.84;1805449;78;25814;-63
2021/11/24 03:07:53;;;;;;;19.05;10.08;;;;;;;3.64;68.49;102266.76;1768713;79;25663;-63
2021/11/24 03:10:20;;;;;;;16.80;10.28;;;;;;;3.57;68.41;102266.58;1821471;78;26250;-63
2021/11/24 03:12:47;;;;;;;30.80;11.60;;;;;;;3.50;68.37;102261.92;1826073;77;25636;-63
2021/11/24 03:15:14;;;;;;;17.98;9.68;;;;;;;3.45;68.39;102268.73;1814316;77;27917;-63
2021/11/24 03:17:41;;;;;;;23.80;10.50;;;;;;;3.40;68.50;102268.03;1833149;78;25727;-63
2021/11/24 03:20:10;;;;;;;24.98;11.68;;;;;;;3.39;68.61;102272.09;1808606;78;25711;-63
2021/11/24 03:22:37;;;;;;;17.48;10.60;;;;;;;3.35;68.69;102267.34;1836729;78;25774;-63
2021/11/24 03:25:07;;;;;;;19.40;10.78;;;;;;;3.35;68.80;102267.78;1832910;78;25727;-63
2021/11/24 03:27:37;;;;;;;22.75;11.15;;;;;;;3.35;68.80;102270.44;1816033;78;27506;-63
2021/11/24 03:30:19;;;;;;;23.85;11.97;;;;;;;3.36;68.85;102277.03;1830560;78;25743;-63
2021/11/24 03:32:46;;;;;;;21.70;12.30;;;;;;;3.41;68.84;102272.88;1817590;78;25695;-63
2021/11/24 03:35:18;;;;;;;26.62;11.25;;;;;;;3.43;69.00;102275.92;1809541;78;26542;-63
2021/11/24 03:37:45;;;;;;;21.62;10.72;;;;;;;3.44;69.17;102275.45;1813042;78;25800;-63
2021/11/24 03:40:15;;;;;;;21.27;10.82;;;;;;;3.50;69.35;102271.23;1777478;80;27492;-63
2021/11/24 03:42:46;;;;;;;26.27;12.58;;;;;;;3.54;69.48;102276.02;1755846;79;25775;-62
2021/11/24 03:45:14;;;;;;;20.17;10.60;;;;;;;3.59;69.52;102268.25;1825136;78;25793;-63
2021/11/24 03:47:42;;;;;;;24.27;11.25;;;;;;;3.68;69.75;102273.73;1811807;77;25758;-63
2021/11/24 03:50:12;;;;;;;19.50;11.00;;;;;;;3.76;69.78;102277.45;1816680;78;25817;-62
2021/11/24 03:52:39;;;;;;;22.90;12.53;;;;;;;3.84;69.86;102279.38;1821364;78;28108;-64
2021/11/24 03:55:09;;;;;;;26.10;11.93;;;;;;;3.92;69.96;102279.08;1809405;79;25477;-63
2021/11/24 03:57:37;;;;;;;31.60;12.43;;;;;;;4.01;70.04;102285.41;1831145;78;25483;-63
2021/11/24 04:00:25;;;;;;;20.17;11.88;;;;;;;4.04;69.65;102281.30;1822424;78;25734;-63
2021/11/24 04:02:53;;;;;;;22.67;12.93;;;;;;;4.12;69.81;102282.81;1747968;81;25950;-63
2021/11/24 04:05:20;;;;;;;26.68;14.75;;;;;;;4.17;69.75;102286.19;1756914;81;27486;-62
2021/11/24 04:07:47;;;;;;;23.85;12.53;;;;;;;4.18;69.28;102283.45;1764284;81;25824;-64
2021/11/24 04:10:15;;;;;;;23.83;11.57;;;;;;;4.08;68.73;102282.91;1761355;81;25774;-64
2021/11/24 04:12:43;;;;;;;21.48;11.78;;;;;;;4.04;68.77;102287.97;1765209;81;26417;-63
2021/11/24 04:15:14;;;;;;;21.62;11.35;;;;;;;4.00;68.43;102285.47;1764910;81;25726;-64
2021/11/24 04:17:43;;;;;;;23.47;11.53;;;;;;;3.98;68.74;102284.20;1765061;81;27505;-64
2021/11/24 04:20:14;;;;;;;17.25;10.75;;;;;;;3.98;68.93;102286.87;1764049;81;25790;-64
2021/11/24 04:22:42;;;;;;;24.05;10.43;;;;;;;3.96;68.82;102286.48;1765326;81;25974;-64
2021/11/24 04:25:11;;;;;;;18.20;10.00;;;;;;;3.90;68.61;102291.58;1765008;81;25812;-64
2021/11/24 04:27:39;;;;;;;18.62;11.12;;;;;;;3.84;68.64;102290.47;1765226;81;25682;-64
2021/11/24 04:30:08;;;;;;;26.57;10.58;;;;;;;3.76;68.78;102286.77;1764295;81;28152;-63
2021/11/24 04:32:35;;;;;;;25.82;10.05;;;;;;;3.66;68.70;102299.52;1750958;81;25718;-63
2021/11/24 04:35:04;;;;;;;19.77;11.20;;;;;;;3.58;68.79;102296.26;1734927;81;25519;-64
2021/11/24 04:37:31;;;;;;;20.60;10.93;;;;;;;3.51;68.94;102304.05;1703799;81;25805;-63
2021/11/24 04:39:58;;;;;;;23.67;10.65;;;;;;;3.43;69.04;102305.19;1734672;81;25872;-64
2021/11/24 04:42:25;;;;;;;17.65;10.45;;;;;;;3.38;69.12;102314.24;1754939;81;27473;-63
2021/11/24 04:44:52;;;;;;;23.15;10.93;;;;;;;3.35;69.23;102307.69;1755134;81;25729;-63
2021/11/24 04:47:19;;;;;;;16.67;9.98;;;;;;;3.34;69.38;102306.83;1755312;81;25457;-63
2021/11/24 04:49:46;;;;;;;31.00;15.00;;;;;;;3.33;69.63;102310.41;1755325;81;25799;-64
2021/11/24 04:52:13;;;;;;;19.95;11.40;;;;;;;3.32;69.70;102310.47;1759734;81;25929;-64
2021/11/24 04:54:40;;;;;;;25.52;11.35;;;;;;;3.31;70.13;102321.55;1765163;81;28326;-64
2021/11/24 04:57:09;;;;;;;29.02;10.53;;;;;;;3.28;70.25;102322.53;1764715;81;25825;-65
2021/11/24 04:59:36;;;;;;;24.63;11.15;;;;;;;3.26;70.26;102319.52;1764847;81;25682;-64
2021/11/24 05:02:04;;;;;;;23.73;10.88;;;;;;;3.28;70.92;102326.95;1740648;81;25816;-65
2021/11/24 05:04:31;;;;;;;45.00;12.03;;;;;;;3.19;70.63;102321.94;1727722;83;25781;-63
2021/11/24 05:06:58;;;;;;;26.93;12.33;;;;;;;3.18;70.85;102321.56;1727948;83;28282;-62
2021/11/24 05:09:25;;;;;;;33.42;11.38;;;;;;;3.16;70.85;102319.41;1727708;83;25684;-62
2021/11/24 05:11:52;;;;;;;25.02;9.48;;;;;;;3.14;70.89;102315.44;1727819;81;25936;-62
2021/11/24 05:14:25;;;;;;;28.17;10.82;;;;;;;3.11;70.98;102320.88;1752716;81;26247;-63
2021/11/24 05:16:49;;;;;;;26.37;10.25;;;;;;;3.10;71.02;102319.14;1757096;81;25786;-62
2021/11/24 05:19:20;;;;;;;29.42;12.33;;;;;;;3.08;71.08;102316.98;1757711;81;27557;-63
2021/11/24 05:21:54;;;;;;;22.60;12.73;;;;;;;3.06;71.03;102326.78;1757877;81;25798;-63
2021/11/24 05:24:21;;;;;;;28.15;14.30;;;;;;;3.02;71.00;102326.49;1755815;81;25881;-63
2021/11/24 05:26:49;;;;;;;24.87;12.75;;;;;;;3.02;71.14;102332.67;1757822;81;25843;-63
2021/11/24 05:29:16;;;;;;;31.23;18.12;;;;;;;3.03;70.94;102337.07;1757790;81;25646;-63
2021/11/24 05:31:43;;;;;;;41.50;20.08;;;;;;;3.02;71.06;102337.12;1755510;81;28213;-63
2021/11/24 05:34:10;;;;;;;43.65;14.68;;;;;;;3.01;71.01;102336.72;1738898;81;25784;-64
2021/11/24 05:36:39;;;;;;;32.23;14.23;;;;;;;2.96;70.86;102335.05;1749211;81;25635;-64
2021/11/24 05:39:10;;;;;;;21.10;10.58;;;;;;;2.92;70.66;102339.19;1741744;81;25891;-64
2021/11/24 05:41:43;;;;;;;182.55;16.42;;;;;;;2.81;70.29;102342.19;1729846;81;25494;-64
2021/11/24 05:44:21;;;;;;;28.67;12.07;;;;;;;2.70;70.38;102336.32;1727921;83;28319;-64
2021/11/24 05:46:50;;;;;;;28.50;10.50;;;;;;;2.57;70.33;102342.02;1727478;83;25731;-64
2021/11/24 05:49:16;;;;;;;32.13;10.90;;;;;;;2.47;70.61;102349.38;1727616;81;25810;-64
2021/11/24 05:51:47;;;;;;;36.20;14.07;;;;;;;2.41;70.71;102342.92;1741299;81;26345;-66
2021/11/24 05:54:14;;;;;;;40.17;12.28;;;;;;;2.40;70.93;102349.62;1757632;81;25731;-63
2021/11/24 05:56:41;;;;;;;19.55;9.80;;;;;;;2.37;71.12;102356.34;1758249;81;28182;-63
2021/11/24 05:59:11;;;;;;;22.95;11.63;;;;;;;2.34;71.50;102353.31;1757404;81;25726;-63
2021/11/24 06:01:38;;;;;;;18.42;10.55;;;;;;;2.33;71.67;102364.85;1748961;81;25755;-63
2021/11/24 06:04:06;;;;;;;20.02;11.43;;;;;;;2.35;71.84;102367.02;1747732;81;25784;-63
2021/11/24 06:06:34;;;;;;;20.95;10.70;;;;;;;2.39;72.05;102380.60;1751669;81;25844;-63
2021/11/24 06:09:04;;;;;;;25.17;11.00;;;;;;;2.42;72.05;102383.18;1751485;81;27513;-64
2021/11/24 06:11:31;;;;;;;15.25;9.80;;;;;;;2.44;72.00;102376.48;1743490;81;26487;-64
2021/11/24 06:13:59;;;;;;;17.92;9.85;;;;;;;2.47;72.10;102381.72;1742763;81;25841;-63
2021/11/24 06:16:26;;;;;;;16.42;9.33;;;;;;;2.51;72.12;102388.67;1746712;81;26624;-63
2021/11/24 06:19:06;;;;;;;19.82;10.53;;;;;;;2.57;72.20;102391.61;1735039;81;25936;-65
2021/11/24 06:21:36;;;;;;;18.27;10.48;;;;;;;2.61;72.10;102397.27;1745836;81;26589;-64
2021/11/24 06:24:05;;;;;;;20.43;11.03;;;;;;;2.65;72.00;102401.56;1750719;81;25763;-65
2021/11/24 06:26:32;;;;;;;19.67;12.78;;;;;;;2.67;71.87;102403.72;1751776;81;25782;-63
2021/11/24 06:28:59;;;;;;;18.67;10.85;;;;;;;2.69;71.75;102404.55;1751660;81;25793;-63
2021/11/24 06:31:31;;;;;;;20.62;10.72;;;;;;;2.72;71.65;102403.15;1751959;81;25883;-65
2021/11/24 06:34:03;;;;;;;26.30;11.53;;;;;;;2.73;71.47;102400.02;1723079;83;28743;-64
2021/11/24 06:36:30;;;;;;;31.68;11.80;;;;;;;2.72;71.37;102400.49;1728903;82;25486;-64
2021/11/24 06:38:57;;;;;;;21.80;10.45;;;;;;;2.72;71.34;102400.49;1751675;81;26546;-64
2021/11/24 06:41:24;;;;;;;21.93;11.12;;;;;;;2.68;70.79;102401.95;1752231;81;26254;-63
2021/11/24 06:43:51;;;;;;;25.88;12.00;;;;;;;2.63;70.84;102405.60;1751608;81;25844;-63
2021/11/24 06:46:18;;;;;;;28.23;12.50;;;;;;;2.62;70.95;102402.53;1751751;81;28696;-63
2021/11/24 06:48:45;;;;;;;29.18;14.85;;;;;;;2.61;71.07;102402.11;1751707;81;25483;-63
2021/11/24 06:51:12;;;;;;;24.75;12.03;;;;;;;2.62;71.15;102402.53;1751441;81;25739;-63
2021/11/24 06:53:40;;;;;;;25.75;13.50;;;;;;;2.65;71.08;102408.20;1751671;81;26611;-63
2021/11/24 06:56:07;;;;;;;27.22;12.93;;;;;;;2.68;71.06;102404.14;1751537;81;25499;-63
2021/11/24 06:58:34;;;;;;;25.02;13.68;;;;;;;2.70;71.20;102400.98;1751524;81;27489;-63
2021/11/24 07:01:02;;;;;;;27.80;14.53;;;;;;;2.74;71.29;102405.28;1751455;81;25771;-63
2021/11/24 07:03:30;;;;;;;35.75;16.87;;;;;;;2.78;71.39;102400.30;1763589;81;26241;-64
2021/11/24 07:05:57;;;;;;;29.77;15.53;;;;;;;2.85;71.31;102400.11;1765443;81;25822;-64
2021/11/24 07:08:24;;;;;;;31.77;15.85;;;;;;;2.91;71.28;102399.47;1765238;81;25823;-63
2021/11/24 07:10:51;;;;;;;38.73;16.17;;;;;;;2.95;71.29;102407.78;1765568;81;27936;-66
2021/11/24 07:13:18;;;;;;;33.63;14.40;;;;;;;3.01;71.21;102415.14;1752433;81;25761;-64
2021/11/24 07:15:46;;;;;;;25.57;15.80;;;;;;;3.06;71.12;102418.52;1734995;82;25749;-67
2021/11/24 07:18:12;;;;;;;31.35;15.32;;;;;;;3.15;71.32;102420.90;1734601;82;25801;-63
2021/11/24 07:20:41;;;;;;;32.53;13.68;;;;;;;3.22;71.32;102417.16;1735289;82;25713;-63
2021/11/24 07:23:13;;;;;;;29.45;15.70;;;;;;;3.26;71.04;102412.61;1734068;82;27482;-64
2021/11/24 07:25:47;;;;;;;29.82;14.00;;;;;;;3.35;71.08;102414.09;1734429;82;25748;-64
2021/11/24 07:28:20;;;;;;;34.60;14.58;;;;;;;3.47;70.99;102415.04;1734094;82;25741;-65
2021/11/24 07:30:48;;;;;;;27.05;14.55;;;;;;;3.59;70.79;102413.77;1734903;82;26210;-63
2021/11/24 07:33:15;;;;;;;34.03;13.85;;;;;;;3.72;70.93;102417.74;1735056;81;25899;-62
2021/11/24 07:35:42;;;;;;;28.55;13.50;;;;;;;3.90;71.15;102415.38;1735246;82;27457;-64
2021/11/24 07:38:09;;;;;;;29.60;13.88;;;;;;;4.05;71.00;102409.55;1735039;82;26096;-63
2021/11/24 07:40:36;;;;;;;33.90;15.90;;;;;;;4.19;69.77;102411.73;1735054;82;25735;-63
2021/11/24 07:43:03;;;;;;;37.58;14.05;;;;;;;4.29;68.56;102413.59;1734977;82;26634;-62
2021/11/24 07:45:30;;;;;;;27.17;13.18;;;;;;;4.37;68.60;102418.18;1735160;82;26236;-62
2021/11/24 07:47:57;;;;;;;29.18;14.35;;;;;;;4.49;68.89;102410.20;1755598;81;27480;-62
2021/11/24 07:50:24;;;;;;;37.17;14.23;;;;;;;4.63;67.37;102413.69;1724986;83;25456;-62
2021/11/24 07:52:51;;;;;;;40.23;17.82;;;;;;;4.70;67.88;102405.89;1742501;82;25516;-63
2021/11/24 07:55:18;;;;;;;36.15;17.05;;;;;;;4.80;67.70;102408.17;1725352;83;27930;-63
2021/11/24 07:57:45;;;;;;;37.78;18.23;;;;;;;4.88;67.60;102412.78;1743092;82;25798;-62
2021/11/24 08:00:13;;;;;;;40.52;17.73;;;;;;;4.95;67.12;102407.61;1725112;83;27488;-62
2021/11/24 08:02:40;;;;;;;28.75;14.53;;;;;;;5.07;67.14;102405.38;1735995;82;26205;-62
2021/11/24 08:05:09;;;;;;;31.87;14.28;;;;;;;5.15;66.40;102405.97;1714134;83;25726;-63
2021/11/24 08:07:36;;;;;;;27.25;13.18;;;;;;;5.27;66.26;102408.61;1714348;83;26606;-63
2021/11/24 08:10:06;;;;;;;23.27;12.53;;;;;;;5.44;66.25;102406.58;1714209;82;26541;-63
2021/11/24 08:12:34;;;;;;;25.45;14.03;;;;;;;5.53;64.96;102410.69;1714557;83;27431;-63
2021/11/24 08:15:01;;;;;;;25.70;13.50;;;;;;;5.64;64.75;102405.78;1714112;83;27267;-64
2021/11/24 08:17:28;;;;;;;23.52;12.60;;;;;;;5.78;64.57;102413.21;1714519;83;25722;-63
2021/11/24 08:19:55;;;;;;;27.48;13.48;;;;;;;5.95;64.52;102401.34;1685998;83;25780;-64
2021/11/24 08:22:24;;;;;;;27.58;12.68;;;;;;;6.23;64.05;102404.16;1714476;83;25747;-63
2021/11/24 08:24:52;;;;;;;22.17;11.55;;;;;;;6.71;62.52;102402.48;1714306;83;27161;-63
2021/11/24 08:27:19;;;;;;;24.12;10.25;;;;;;;7.47;60.37;102406.47;1714527;83;25866;-64
2021/11/24 08:29:45;;;;;;;20.52;10.53;;;;;;;8.23;58.01;102413.81;1718421;82;25922;-65
2021/11/24 08:32:14;;;;;;;19.23;9.08;;;;;;;8.95;56.86;102411.77;1714578;82;25839;-69
2021/11/24 08:34:41;;;;;;;16.00;8.18;;;;;;;9.51;54.31;102401.44;1714666;83;25795;-64
2021/11/24 08:37:15;;;;;;;20.57;9.03;;;;;;;10.08;54.14;102397.70;1714029;83;27478;-66
2021/11/24 08:39:56;;;;;;;17.77;7.28;;;;;;;10.63;54.47;102402.38;1713710;83;25845;-66
2021/11/24 08:42:38;;;;;;;20.27;8.48;;;;;;;11.25;52.95;102397.08;1710339;83;25758;-67
2021/11/24 08:45:09;;;;;;;24.98;9.80;;;;;;;11.84;52.51;102399.94;1684758;83;25767;-65
2021/11/24 08:48:06;;;;;;;15.88;6.85;;;;;;;12.19;48.46;102387.23;1734904;82;25786;-65
2021/11/24 08:50:21;;;;;;;12.03;7.03;;;;;;;12.69;49.12;102393.19;1689408;82;26113;-67
2021/11/24 08:52:51;;;;;;;;;;;;;;;13.19;48.95;102392.32;1746163;82;25953;-66
2021/11/24 08:55:21;;;;;;;12.80;6.12;;;;;;;13.53;46.59;102393.88;1743726;82;25777;-66
2021/11/24 08:57:51;;;;;;;17.75;5.50;;;;;;;13.93;46.29;102397.11;1743400;82;25925;-63
2021/11/24 09:00:28;;;;;;;16.50;5.72;;;;;;;14.28;46.62;102383.64;1743846;81;25703;-67
2021/11/24 09:03:05;;;;;;;16.15;6.65;;;;;;;14.50;43.93;102383.67;1755361;80;28436;-66
2021/11/24 09:05:36;;;;;;;12.80;6.58;;;;;;;14.66;40.44;102384.67;1747917;82;25787;-66
2021/11/24 09:08:07;;;;;;;12.35;6.17;;;;;;;14.79;41.13;102380.98;1745192;82;25756;-63
2021/11/24 09:10:34;;;;;;;10.63;5.15;;;;;;;15.13;42.13;102375.50;1783268;80;25785;-63
2021/11/24 09:13:02;;;;;;;12.80;6.00;;;;;;;15.60;39.76;102372.02;1753329;80;25800;-64
2021/11/24 09:15:29;;;;;;;11.45;6.28;;;;;;;15.57;34.81;102374.13;1748408;82;27536;-61
2021/11/24 09:18:05;;;;;;;10.55;5.53;;;;;;;15.68;36.86;102373.21;1747832;82;25787;-66
2021/11/24 09:20:33;;;;;;;11.25;5.10;;;;;;;16.07;37.62;102376.25;1747932;81;25848;-64
2021/11/24 09:23:00;;;;;;;9.90;4.55;;;;;;;16.53;36.62;102373.56;1748061;82;25807;-63
2021/11/24 09:25:36;;;;;;;9.08;3.72;;;;;;;17.11;36.13;102372.05;1748503;82;25663;-63
2021/11/24 09:28:06;;;;;;;10.85;6.05;;;;;;;17.52;33.51;102366.50;1746683;82;27469;-64
2021/11/24 09:30:28;;;;;;;9.45;5.25;;;;;;;17.78;34.76;102368.14;1747367;82;25529;-64
2021/11/24 09:32:55;;;;;;;9.03;4.50;;;;;;;17.97;33.01;102366.44;1750830;81;26403;-64
2021/11/24 09:35:22;;;;;;;11.08;4.37;;;;;;;17.82;31.15;102370.08;1752539;81;25876;-64
2021/11/24 09:37:49;;;;;;;10.45;4.58;;;;;;;17.99;32.99;102371.20;1752372;81;25863;-63
2021/11/24 09:40:17;;;;;;;10.78;4.75;;;;;;;18.46;29.34;102366.30;1752424;81;27468;-64
2021/11/24 09:42:47;;;;;;;10.50;5.65;;;;;;;18.46;31.07;102368.50;1752501;81;25681;-64
2021/11/24 09:45:16;;;;;;;12.15;5.37;;;;;;;17.85;31.80;102369.77;1752500;81;25709;-65
2021/11/24 09:47:48;;;;;;;12.73;6.37;;;;;;;17.62;31.22;102359.68;1749642;81;25812;-63
2021/11/24 09:50:22;;;;;;;9.78;5.50;;;;;;;17.35;31.56;102362.61;1748371;82;25754;-63
2021/11/24 09:52:50;;;;;;;14.68;5.42;;;;;;;16.61;32.74;102356.56;1747231;82;27484;-68
2021/11/24 09:55:39;;;;;;;;;;;;;;;;;;;;;
2021/11/24 09:58:07;;;;;;;12.45;5.12;;;;;;;17.65;32.43;102349.39;1746428;81;25666;-66
2021/11/24 10:00:41;;;;;;;9.55;4.97;;;;;;;18.21;30.59;102359.11;1747057;82;25814;-66
2021/11/24 10:03:17;;;;;;;8.30;4.50;;;;;;;18.50;30.71;102346.41;1759004;80;25858;-67
2021/11/24 10:05:49;;;;;;;12.80;5.28;;;;;;;18.75;30.57;102347.06;1779539;80;27485;-65
2021/11/24 10:08:18;;;;;;;13.43;4.10;;;;;;;19.08;29.67;102339.28;1782676;80;25946;-64
2021/11/24 10:10:45;;;;;;;12.78;4.53;;;;;;;19.37;29.93;102346.88;1782961;80;25724;-63
2021/11/24 10:13:14;;;;;;;10.75;5.03;;;;;;;19.71;29.79;102341.56;1783264;80;26458;-63
2021/11/24 10:15:52;;;;;;;7.58;4.95;;;;;;;20.07;29.56;102337.05;1748126;82;25764;-63
2021/11/24 10:18:32;;;;;;;9.50;4.75;;;;;;;20.03;28.42;102343.35;1747955;82;28751;-64
2021/11/24 10:21:06;;;;;;;7.42;4.55;;;;;;;20.22;29.23;102342.78;1747844;82;25758;-64
2021/11/24 10:23:43;;;;;;;8.68;4.53;;;;;;;20.31;27.91;102340.45;1783244;80;25711;-64
2021/11/24 10:26:27;;;;;;;6.70;4.72;;;;;;;20.48;27.06;102340.88;1782836;80;25801;-64
2021/11/24 10:28:58;;;;;;;10.00;4.77;;;;;;;19.81;27.13;102341.45;1782936;80;25801;-64
2021/11/24 10:31:36;;;;;;;8.90;4.12;;;;;;;18.99;27.48;102342.09;1782967;80;27454;-64
2021/11/24 10:34:29;;;;;;;7.58;4.55;;;;;;;18.45;27.30;102338.69;1782614;80;25783;-65
2021/11/24 10:37:06;;;;;;;7.30;4.33;;;;;;;19.03;27.38;102336.17;1721476;83;25814;-64
2021/11/24 10:39:57;;;;;;;8.43;4.25;;;;;;;19.71;25.19;102331.16;1722478;82;25759;-65
2021/11/24 10:42:43;;;;;;;7.28;4.47;;;;;;;19.99;26.17;102326.95;1762109;80;25718;-64
2021/11/24 10:45:19;;;;;;;11.75;4.90;;;;;;;20.36;25.00;102328.50;1782590;80;28695;-64
2021/11/24 10:47:59;;;;;;;7.50;4.30;;;;;;;20.32;24.93;102328.50;1705817;81;28211;-65
2021/11/24 10:50:30;;;;;;;6.72;4.05;;;;;;;20.18;25.45;102326.70;1721441;82;25847;-65
2021/11/24 10:52:58;;;;;;;6.67;3.65;;;;;;;20.28;24.80;102325.24;1721631;81;25848;-65
2021/11/24 10:55:35;;;;;;;8.98;4.08;;;;;;;20.57;25.12;102320.41;1721881;82;25469;-64
2021/11/24 10:58:24;;;;;;;15.08;3.67;;;;;;;20.95;23.26;102316.27;1698596;83;26437;-67
2021/11/24 11:00:56;;;;;;;6.72;3.55;;;;;;;20.99;24.99;102309.11;1718527;81;25846;-65
2021/11/24 11:03:45;;;;;;;8.98;4.10;;;;;;;21.34;23.86;102320.78;1723753;82;25842;-69
2021/11/24 11:06:29;;;;;;;6.30;3.27;;;;;;;21.61;24.44;102309.18;1713112;83;26227;-64
2021/11/24 11:08:57;;;;;;;5.12;3.25;;;;;;;21.85;23.87;102306.94;1722242;83;25755;-65
2021/11/24 11:11:30;;;;;;;7.85;3.22;;;;;;;22.09;22.95;102307.40;1722177;83;26974;-65
2021/11/24 11:14:21;;;;;;;8.50;4.25;;;;;;;20.91;21.89;102301.73;1721959;83;25815;-65
2021/11/24 11:16:52;;;;;;;7.03;3.83;;;;;;;19.72;23.67;102300.12;1721823;83;25663;-64
2021/11/24 11:19:49;;;;;;;8.78;4.42;;;;;;;18.65;24.65;102301.80;1722179;83;25828;-65
2021/11/24 11:22:19;;;;;;;6.67;3.90;;;;;;;17.47;25.08;102302.99;1722185;83;25537;-64
2021/11/24 11:24:46;;;;;;;9.70;4.10;;;;;;;16.16;26.55;102302.14;1722071;83;27493;-64
2021/11/24 11:27:14;;;;;;;8.78;3.98;;;;;;;15.55;27.43;102302.39;1721924;83;25677;-64
2021/11/24 11:29:42;;;;;;;7.37;4.20;;;;;;;15.09;28.38;102298.16;1714346;83;25515;-63